Time;durP1;ratioP1;P1;durP2;ratioP2;P2;SDS_P1;SDS_P2;PMS_P1;PMS_P2;Temp;Humidity;BMP_temperature;BMP_pressure;BME280_temperature;BME280_humidity;BME280_pressure;Samples;Min_cycle;Max_cycle;Signal;HPM_P1;HPM_P2
2023/04/24 00:01:29;;;;;;;9.07;5.70;;;13.40;78.90;;;13.58;53.42;94698.81;5075103;28;20864;-64
2023/04/24 00:03:59;;;;;;;5.67;5.17;;;13.40;79.00;;;13.55;53.32;94698.31;5079352;28;20581;-58
2023/04/24 00:06:32;;;;;;;6.80;6.10;;;13.40;77.80;;;13.52;52.92;94696.00;5076029;28;21035;-63
2023/04/24 00:09:02;;;;;;;7.43;5.23;;;13.40;78.00;;;13.50;53.16;94696.16;5076407;28;20462;-65
2023/04/24 00:11:29;;;;;;;10.13;6.37;;;13.30;78.20;;;13.49;52.96;94701.59;5074086;28;21019;-58
2023/04/24 00:13:56;;;;;;;7.13;5.50;;;13.30;78.50;;;13.47;53.23;94699.13;5070713;28;20927;-59
2023/04/24 00:16:24;;;;;;;8.30;5.90;;;13.30;79.10;;;13.45;53.10;94699.28;5068409;28;21007;-59
2023/04/24 00:18:55;;;;;;;10.23;5.10;;;13.30;79.10;;;13.43;52.98;94705.69;5077099;28;20501;-64
2023/04/24 00:21:25;;;;;;;9.10;6.00;;;13.30;78.90;;;13.41;53.24;94710.31;5074984;28;20489;-63
2023/04/24 00:23:52;;;;;;;10.03;5.30;;;13.20;78.80;;;13.40;53.33;94706.88;5073567;28;20974;-64
2023/04/24 00:26:21;;;;;;;14.40;6.07;;;13.20;79.00;;;13.39;53.30;94704.38;5075608;28;20474;-64
2023/04/24 00:28:48;;;;;;;7.87;5.20;;;13.20;79.60;;;13.37;53.50;94701.06;5077924;28;20588;-63
2023/04/24 00:31:16;;;;;;;5.60;5.20;;;13.20;79.70;;;13.38;53.75;94703.53;5072736;28;20482;-64
2023/04/24 00:33:43;;;;;;;5.80;5.30;;;13.20;79.90;;;13.37;53.39;94707.19;5072097;28;20639;-60
2023/04/24 00:36:10;;;;;;;7.93;6.47;;;13.20;79.70;;;13.36;53.48;94694.16;5077339;28;20462;-59
2023/04/24 00:38:37;;;;;;;13.73;7.30;;;13.20;79.70;;;13.35;53.51;94703.03;5071273;28;21885;-57
2023/04/24 00:41:05;;;;;;;11.33;7.10;;;13.20;79.90;;;13.33;53.53;94695.28;5077270;28;20470;-58
2023/04/24 00:43:34;;;;;;;11.20;7.60;;;13.10;79.80;;;13.30;53.98;94700.03;5069567;28;20475;-58
2023/04/24 00:46:01;;;;;;;13.20;7.90;;;13.20;80.30;;;13.25;54.00;94703.97;5073818;28;20485;-57
2023/04/24 00:48:29;;;;;;;8.87;7.70;;;13.10;80.80;;;13.22;54.05;94704.28;5069385;28;20567;-63
2023/04/24 00:50:57;;;;;;;10.47;8.40;;;13.10;81.10;;;13.20;54.71;94695.72;5067445;28;20497;-59
2023/04/24 00:53:24;;;;;;;15.47;8.27;;;13.10;82.20;;;13.21;54.59;94702.63;5073823;28;20510;-57
2023/04/24 00:55:51;;;;;;;13.87;8.43;;;13.00;82.50;;;13.18;54.64;94692.38;5067980;28;20494;-64
2023/04/24 00:58:19;;;;;;;9.43;8.50;;;13.00;82.70;;;13.17;55.22;94700.50;5068653;28;20494;-64
2023/04/24 01:00:47;;;;;;;10.73;8.03;;;13.00;83.80;;;13.15;55.09;94697.19;5073129;28;20482;-57
2023/04/24 01:03:15;;;;;;;10.63;8.13;;;13.00;84.30;;;13.12;56.11;94682.50;5077518;28;20946;-58
2023/04/24 01:05:42;;;;;;;13.10;7.50;;;13.00;85.40;;;13.12;55.59;94686.94;5073638;28;21970;-59
2023/04/24 01:08:09;;;;;;;11.93;8.30;;;13.00;85.50;;;13.10;56.02;94673.88;5073295;28;20474;-65
2023/04/24 01:10:37;;;;;;;14.20;9.30;;;13.00;86.30;;;13.08;56.16;94675.88;5068013;28;20465;-58
2023/04/24 01:13:04;;;;;;;9.83;7.50;;;12.90;86.50;;;13.07;56.22;94676.84;5071150;28;21190;-57
2023/04/24 01:15:31;;;;;;;10.60;7.53;;;12.90;87.10;;;13.04;56.46;94674.53;5067329;28;20483;-64
2023/04/24 01:18:00;;;;;;;11.53;8.37;;;12.90;87.90;;;13.01;57.12;94667.78;5076622;28;20496;-57
2023/04/24 01:20:28;;;;;;;9.40;7.80;;;12.90;89.20;;;12.98;56.62;94675.16;5071396;28;20478;-58
2023/04/24 01:22:57;;;;;;;14.73;8.50;;;12.90;88.60;;;12.96;57.00;94671.88;5073399;28;21012;-57
2023/04/24 01:25:24;;;;;;;20.57;7.80;;;12.80;89.20;;;12.94;56.75;94658.81;5074305;28;20478;-57
2023/04/24 01:27:52;;;;;;;10.33;7.77;;;12.80;89.10;;;12.90;57.22;94666.25;5068728;28;20475;-65
2023/04/24 01:30:19;;;;;;;11.87;7.30;;;12.80;90.30;;;12.86;57.12;94674.63;5072571;28;20486;-58
2023/04/24 01:32:47;;;;;;;10.50;6.60;;;12.70;90.20;;;12.82;56.81;94668.00;5070948;28;20497;-58
2023/04/24 01:35:14;;;;;;;9.40;6.77;;;12.70;90.10;;;12.77;57.29;94663.22;5070618;28;20561;-63
2023/04/24 01:37:41;;;;;;;8.07;7.03;;;12.60;90.30;;;12.72;57.02;94661.03;5072739;28;20804;-58
2023/04/24 01:40:11;;;;;;;8.53;7.70;;;12.60;90.20;;;12.70;57.33;94667.47;5076796;28;20547;-57
2023/04/24 01:42:38;;;;;;;10.97;7.43;;;12.50;90.30;;;12.68;57.09;94653.59;5074770;28;21032;-64
2023/04/24 01:45:07;;;;;;;9.13;6.77;;;12.50;90.30;;;12.65;57.27;94664.47;5076173;28;20478;-58
2023/04/24 01:47:34;;;;;;;13.43;7.77;;;12.50;90.50;;;12.62;57.19;94654.25;5074454;28;20485;-61
2023/04/24 01:50:01;;;;;;;14.80;8.60;;;12.50;90.50;;;12.60;57.32;94653.56;5068598;28;20473;-57
2023/04/24 01:52:30;;;;;;;9.40;6.97;;;12.50;90.60;;;12.58;57.65;94650.25;5067261;28;20510;-59
2023/04/24 01:55:00;;;;;;;7.67;6.87;;;12.50;91.00;;;12.57;57.46;94653.88;5073808;28;20920;-58
2023/04/24 01:57:30;;;;;;;10.50;6.83;;;12.40;91.00;;;12.54;57.18;94650.56;5071824;28;20485;-63
2023/04/24 01:59:57;;;;;;;8.07;7.27;;;12.40;91.10;;;12.53;57.64;94645.44;5073319;28;20546;-58
2023/04/24 02:02:27;;;;;;;14.23;7.20;;;12.40;91.30;;;12.50;57.64;94646.59;5076215;28;20987;-58
2023/04/24 02:04:54;;;;;;;7.60;6.87;;;12.40;91.20;;;12.49;57.85;94652.84;5078284;28;20469;-58
2023/04/24 02:07:21;;;;;;;8.73;6.37;;;12.40;91.50;;;12.46;57.69;94655.81;5071992;28;20485;-59
2023/04/24 02:09:49;;;;;;;11.53;6.60;;;12.30;91.20;;;12.42;57.40;94653.63;5071558;28;20636;-60
2023/04/24 02:12:17;;;;;;;11.93;7.93;;;12.30;91.40;;;12.37;57.57;94656.75;5070720;28;20502;-59
2023/04/24 02:14:45;;;;;;;10.93;6.67;;;12.30;91.50;;;12.34;57.48;94652.59;5074394;28;20458;-62
2023/04/24 02:17:13;;;;;;;17.07;8.00;;;12.20;91.50;;;12.31;57.76;94654.72;5070422;28;20477;-57
2023/04/24 02:19:41;;;;;;;14.90;7.30;;;12.20;91.60;;;12.26;57.88;94649.09;5072139;28;20569;-58
2023/04/24 02:22:08;;;;;;;9.73;6.67;;;12.10;91.60;;;12.21;57.77;94657.47;5068768;28;20482;-64
2023/04/24 02:24:36;;;;;;;8.20;7.23;;;12.10;91.70;;;12.17;57.75;94650.84;5075771;28;20489;-65
2023/04/24 02:27:03;;;;;;;8.50;7.20;;;12.10;91.80;;;12.14;57.96;94648.53;5073742;28;20481;-57
2023/04/24 02:29:30;;;;;;;9.70;6.97;;;12.00;91.80;;;12.11;57.90;94636.47;5076488;28;20473;-65
2023/04/24 02:31:59;;;;;;;15.40;7.00;;;12.00;91.90;;;12.09;57.97;94633.16;5073313;28;20479;-65
2023/04/24 02:34:27;;;;;;;7.73;7.03;;;12.00;91.80;;;12.06;57.71;94636.13;5075257;28;20478;-64
2023/04/24 02:36:54;;;;;;;11.03;6.40;;;11.90;91.80;;;12.04;57.83;94627.53;5075881;28;20870;-64
2023/04/24 02:39:22;;;;;;;7.73;5.93;;;11.90;91.70;;;12.02;57.73;94624.22;5076147;28;20481;-63
2023/04/24 02:41:49;;;;;;;7.07;5.93;;;11.90;91.80;;;12.00;57.64;94626.19;5068272;28;20466;-57
2023/04/24 02:44:17;;;;;;;11.87;6.77;;;11.90;91.80;;;11.97;57.85;94619.41;5074178;28;20470;-59
2023/04/24 02:46:44;;;;;;;12.63;6.60;;;11.90;91.90;;;11.94;57.82;94622.34;5074714;28;20464;-60
2023/04/24 02:49:13;;;;;;;7.20;6.50;;;11.80;91.90;;;11.90;57.78;94628.91;5073842;28;20466;-58
2023/04/24 02:51:41;;;;;;;16.30;6.50;;;11.80;92.00;;;11.89;58.01;94629.06;5073262;28;20463;-64
2023/04/24 02:54:09;;;;;;;15.20;6.63;;;11.80;92.30;;;11.87;57.90;94631.00;5074715;28;20507;-58
2023/04/24 02:56:36;;;;;;;8.47;7.63;;;11.80;92.30;;;11.83;58.01;94623.44;5077891;28;20492;-64
2023/04/24 02:59:04;;;;;;;9.33;6.70;;;11.70;92.50;;;11.80;58.30;94626.38;5071774;28;21804;-58
2023/04/24 03:01:31;;;;;;;9.60;5.87;;;11.70;92.40;;;11.79;58.18;94627.34;5076934;28;20450;-64
2023/04/24 03:03:58;;;;;;;8.27;5.20;;;11.70;92.40;;;11.77;57.95;94629.31;5075676;28;20513;-58
2023/04/24 03:06:28;;;;;;;11.20;6.70;;;11.60;92.30;;;11.78;57.92;94633.56;5073866;28;20521;-59
2023/04/24 03:08:55;;;;;;;19.63;6.67;;;11.70;92.50;;;11.77;58.00;94629.31;5071308;28;20501;-65
2023/04/24 03:11:22;;;;;;;10.30;6.20;;;11.60;92.60;;;11.77;58.04;94628.47;5071785;28;20564;-58
2023/04/24 03:13:49;;;;;;;8.83;7.30;;;11.70;92.50;;;11.76;58.14;94629.47;5071288;28;20466;-64
2023/04/24 03:16:17;;;;;;;29.67;22.93;;;11.70;92.60;;;11.75;58.06;94641.78;5075691;28;20703;-57
2023/04/24 03:18:44;;;;;;;37.30;25.17;;;11.60;92.60;;;11.74;58.13;94629.63;5071025;28;20650;-59
2023/04/24 03:21:11;;;;;;;25.40;21.70;;;11.70;92.60;;;11.75;58.17;94625.97;5070832;28;20482;-58
2023/04/24 03:23:40;;;;;;;17.07;12.73;;;11.60;92.60;;;11.75;58.17;94631.25;5077031;28;20480;-64
2023/04/24 03:26:07;;;;;;;9.50;7.07;;;11.70;92.60;;;11.77;57.83;94631.09;5070179;28;20493;-65
2023/04/24 03:28:34;;;;;;;10.93;8.00;;;11.70;92.60;;;11.77;58.02;94629.31;5074629;28;20477;-67
2023/04/24 03:31:02;;;;;;;16.77;8.30;;;11.70;92.60;;;11.77;57.99;94631.94;5075697;28;20473;-59
2023/04/24 03:33:29;;;;;;;11.27;7.70;;;11.70;92.60;;;11.77;57.87;94634.56;5074083;28;21162;-59
2023/04/24 03:35:57;;;;;;;9.50;7.90;;;11.60;92.60;;;11.77;58.10;94629.31;5075465;28;21034;-65
2023/04/24 03:38:24;;;;;;;9.20;7.10;;;11.60;92.60;;;11.77;58.13;94628.47;5073018;28;20893;-58
2023/04/24 03:40:53;;;;;;;16.10;7.80;;;11.60;92.90;;;11.77;58.05;94617.91;5071720;28;20498;-64
2023/04/24 03:43:20;;;;;;;15.73;7.73;;;11.60;92.80;;;11.77;58.33;94624.03;5077088;28;20473;-64
2023/04/24 03:45:47;;;;;;;11.13;7.30;;;11.70;92.90;;;11.77;58.25;94634.56;5073700;28;20481;-58
2023/04/24 03:48:15;;;;;;;15.07;8.63;;;11.70;93.00;;;11.78;57.98;94627.50;5074341;28;20512;-58
2023/04/24 03:50:42;;;;;;;9.77;7.80;;;11.60;92.80;;;11.78;57.84;94630.94;5074027;28;20470;-59
2023/04/24 03:53:09;;;;;;;15.40;9.00;;;11.70;92.70;;;11.77;57.91;94637.22;5075973;28;20538;-59
2023/04/24 03:55:36;;;;;;;11.83;7.80;;;11.70;92.80;;;11.80;57.77;94639.53;5078531;28;20462;-63
2023/04/24 03:58:05;;;;;;;14.10;8.23;;;11.60;92.70;;;11.80;58.02;94644.81;5076643;28;20994;-60
2023/04/24 04:00:33;;;;;;;18.50;7.20;;;11.70;92.90;;;11.82;57.82;94628.84;5073488;28;22511;-59
2023/04/24 04:03:00;;;;;;;19.67;8.50;;;11.70;93.00;;;11.84;57.99;94630.31;5073958;28;20855;-59
2023/04/24 04:05:28;;;;;;;15.10;7.57;;;11.70;93.10;;;11.88;57.95;94627.38;5077144;28;20929;-63
2023/04/24 04:07:55;;;;;;;18.10;8.33;;;11.80;92.90;;;11.90;57.81;94628.06;5074817;28;20535;-59
2023/04/24 04:10:22;;;;;;;9.80;7.33;;;11.80;92.70;;;11.91;57.80;94630.53;5075690;28;20566;-63
2023/04/24 04:12:50;;;;;;;12.07;7.83;;;11.80;92.80;;;11.95;57.43;94628.47;5077872;28;20466;-59
2023/04/24 04:15:19;;;;;;;18.13;8.70;;;11.80;93.10;;;11.97;57.81;94632.59;5069264;28;22221;-59
2023/04/24 04:17:46;;;;;;;10.90;7.63;;;11.80;92.70;;;12.00;57.43;94634.09;5069642;28;20485;-63
2023/04/24 04:20:14;;;;;;;11.63;7.30;;;11.90;92.70;;;12.04;57.48;94627.53;5076211;28;20986;-60
2023/04/24 04:22:41;;;;;;;7.50;6.90;;;11.90;92.70;;;12.08;57.75;94626.22;5077775;28;20570;-63
2023/04/24 04:25:09;;;;;;;16.67;7.73;;;11.90;92.70;;;12.13;57.37;94642.44;5076106;28;20489;-59
2023/04/24 04:27:36;;;;;;;8.47;7.03;;;12.00;92.80;;;12.17;57.59;94649.03;5070528;28;20514;-58
2023/04/24 04:30:05;;;;;;;9.70;7.50;;;12.00;92.60;;;12.22;57.25;94645.94;5074239;28;21525;-58
2023/04/24 04:32:34;;;;;;;11.23;6.93;;;12.10;92.60;;;12.28;57.38;94647.94;5071046;28;20513;-59
2023/04/24 04:35:03;;;;;;;12.90;6.87;;;12.10;92.80;;;12.35;57.56;94654.25;5068574;28;20577;-59
2023/04/24 04:37:31;;;;;;;21.60;8.70;;;12.20;92.70;;;12.42;57.02;94651.81;5071781;28;20992;-57
2023/04/24 04:39:58;;;;;;;51.90;24.60;;;12.20;92.40;;;12.45;56.95;94648.88;5072080;28;20505;-59
2023/04/24 04:42:26;;;;;;;29.77;8.83;;;12.30;92.40;;;12.51;57.08;94657.97;5075427;28;20474;-63
2023/04/24 04:44:54;;;;;;;25.43;9.27;;;12.30;92.30;;;12.54;56.70;94658.47;5074490;28;21014;-60
2023/04/24 04:47:22;;;;;;;19.40;8.10;;;12.40;92.30;;;12.61;56.94;94663.13;5072840;28;20475;-60
2023/04/24 04:49:52;;;;;;;19.27;8.17;;;12.40;92.30;;;12.66;56.84;94666.13;5071176;28;20889;-60
2023/04/24 04:52:19;;;;;;;20.23;7.70;;;12.50;92.30;;;12.72;56.28;94673.44;5075582;28;21013;-64
2023/04/24 04:54:47;;;;;;;40.43;10.93;;;12.50;91.90;;;12.74;56.34;94672.25;5071901;28;20455;-64
2023/04/24 04:57:14;;;;;;;24.50;10.60;;;12.60;92.10;;;12.79;56.79;94668.34;5075669;28;20589;-59
2023/04/24 04:59:42;;;;;;;17.70;10.00;;;12.60;92.30;;;12.82;56.66;94676.75;5077413;28;20567;-64
2023/04/24 05:02:09;;;;;;;14.80;7.30;;;12.60;92.10;;;12.86;56.26;94672.81;5080598;28;20493;-66
2023/04/24 05:04:36;;;;;;;60.47;25.00;;;12.70;91.70;;;12.90;56.14;94670.69;5076228;28;20450;-64
2023/04/24 05:07:05;;;;;;;38.23;17.03;;;12.80;91.80;;;12.92;55.83;94671.38;5074907;28;20474;-60
2023/04/24 05:09:33;;;;;;;12.70;8.00;;;12.80;91.50;;;12.95;55.64;94665.78;5076731;28;20569;-64
2023/04/24 05:12:00;;;;;;;11.80;6.70;;;12.80;91.20;;;12.97;55.20;94674.34;5075852;28;20992;-64
2023/04/24 05:14:27;;;;;;;11.80;7.43;;;12.80;90.90;;;12.99;55.34;94672.38;5078934;28;20889;-58
2023/04/24 05:16:55;;;;;;;14.77;7.50;;;12.80;90.80;;;12.98;55.13;94661.97;5070652;28;20994;-65
2023/04/24 05:19:22;;;;;;;27.53;7.37;;;12.80;90.60;;;12.96;55.34;94674.50;5077058;28;20540;-59
2023/04/24 05:21:49;;;;;;;19.70;7.53;;;12.80;90.50;;;12.98;55.24;94669.88;5077360;28;20901;-59
2023/04/24 05:24:18;;;;;;;14.20;8.53;;;12.80;90.80;;;13.01;55.17;94653.72;5077913;28;20655;-64
2023/04/24 05:26:45;;;;;;;10.67;7.30;;;12.80;90.40;;;13.02;55.05;94666.75;5075882;28;20475;-65
2023/04/24 05:29:12;;;;;;;10.37;7.47;;;12.80;90.40;;;13.02;54.78;94669.41;5074267;28;20454;-60
2023/04/24 05:31:40;;;;;;;15.20;8.50;;;12.80;90.40;;;13.06;54.75;94662.81;5078067;28;20474;-64
2023/04/24 05:34:07;;;;;;;17.73;7.50;;;12.90;90.50;;;13.10;54.58;94658.03;5075604;28;20466;-64
2023/04/24 05:36:35;;;;;;;13.20;7.97;;;12.90;90.50;;;13.17;54.81;94663.53;5076930;28;20450;-59
2023/04/24 05:39:04;;;;;;;13.20;8.47;;;13.00;90.50;;;13.22;54.48;94664.69;5071133;28;20446;-64
2023/04/24 05:41:33;;;;;;;17.33;6.77;;;13.00;90.50;;;13.29;54.16;94664.84;5076353;28;20446;-64
2023/04/24 05:44:00;;;;;;;22.23;7.73;;;13.10;90.00;;;13.36;54.22;94668.53;5070049;28;21009;-65
2023/04/24 05:46:28;;;;;;;18.67;7.37;;;13.20;89.90;;;13.43;53.43;94666.06;5077521;28;21005;-59
2023/04/24 05:48:55;;;;;;;8.33;5.90;;;13.20;88.80;;;13.49;53.33;94673.34;5073556;28;20446;-64
2023/04/24 05:51:23;;;;;;;12.20;7.13;;;13.30;87.80;;;13.54;53.12;94665.78;5074982;28;20450;-59
2023/04/24 05:53:50;;;;;;;16.43;6.90;;;13.40;87.50;;;13.66;52.85;94666.28;5076080;28;20908;-60
2023/04/24 05:56:17;;;;;;;10.63;6.27;;;13.40;87.40;;;13.82;52.92;94665.47;5071159;28;20481;-65
2023/04/24 05:58:47;;;;;;;11.83;7.00;;;13.50;87.10;;;13.97;52.24;94665.63;5076485;28;20474;-64
2023/04/24 06:01:15;;;;;;;23.10;7.50;;;13.70;86.30;;;14.12;52.08;94663.16;5075805;28;20580;-59
2023/04/24 06:03:42;;;;;;;8.10;5.90;;;13.80;85.90;;;14.22;51.29;94669.09;5069958;28;20485;-60
2023/04/24 06:06:10;;;;;;;14.77;6.30;;;13.90;84.40;;;14.27;51.04;94666.78;5074942;28;20451;-65
2023/04/24 06:08:37;;;;;;;11.17;6.60;;;14.00;83.40;;;14.34;50.97;94667.75;5076228;28;20470;-59
2023/04/24 06:11:05;;;;;;;15.67;5.50;;;14.10;83.60;;;14.42;50.88;94672.22;5073359;28;20453;-60
2023/04/24 06:13:32;;;;;;;6.90;5.30;;;14.10;82.70;;;14.54;50.37;94667.38;5075398;28;20485;-64
2023/04/24 06:16:01;;;;;;;19.43;5.90;;;14.20;82.50;;;14.70;50.29;94672.66;5072477;28;20462;-60
2023/04/24 06:18:29;;;;;;;7.00;5.20;;;14.40;81.60;;;14.84;49.78;94670.28;5077648;28;20466;-60
2023/04/24 06:20:56;;;;;;;17.07;6.60;;;14.50;80.40;;;14.96;49.56;94676.88;5071698;28;20487;-60
2023/04/24 06:23:24;;;;;;;12.93;6.70;;;14.60;80.40;;;15.01;49.35;94671.91;5075550;28;20499;-64
2023/04/24 06:25:52;;;;;;;9.10;6.40;;;14.70;79.90;;;15.08;49.27;94679.16;5072194;28;20451;-59
2023/04/24 06:28:19;;;;;;;9.10;6.00;;;14.80;79.50;;;15.14;49.10;94679.28;5075665;28;20478;-61
2023/04/24 06:30:46;;;;;;;15.53;6.87;;;14.90;79.20;;;15.22;48.84;94686.38;5076191;28;20462;-64
2023/04/24 06:33:16;;;;;;;20.60;5.77;;;14.90;78.40;;;15.29;48.82;94678.53;5076970;28;20505;-65
2023/04/24 06:35:44;;;;;;;15.83;6.30;;;15.00;78.00;;;15.38;48.02;94680.16;5076152;28;20458;-60
2023/04/24 06:38:11;;;;;;;15.93;7.90;;;15.10;76.80;;;15.53;48.11;94667.81;5077974;28;20470;-59
2023/04/24 06:40:39;;;;;;;12.23;6.57;;;15.20;77.40;;;15.74;48.61;94671.66;5074034;28;20860;-64
2023/04/24 06:43:06;;;;;;;11.93;6.07;;;15.40;78.00;;;15.99;48.45;94671.47;5076642;28;20480;-65
2023/04/24 06:45:34;;;;;;;8.43;6.50;;;15.60;77.50;;;16.26;48.10;94667.44;5074538;28;20776;-65
2023/04/24 06:48:01;;;;;;;12.60;6.50;;;15.90;77.60;;;16.48;47.70;94666.59;5075302;28;20474;-59
2023/04/24 06:50:30;;;;;;;15.27;7.13;;;16.10;76.90;;;16.55;47.45;94664.03;5078726;28;20462;-64
2023/04/24 06:52:57;;;;;;;13.83;7.13;;;16.30;75.90;;;16.59;46.94;94660.00;5078718;28;20466;-65
2023/04/24 06:55:25;;;;;;;15.40;7.90;;;16.30;74.90;;;16.67;47.09;94661.75;5076056;28;20473;-64
2023/04/24 06:57:52;;;;;;;15.27;7.70;;;16.40;75.00;;;16.80;47.26;94658.44;5079392;28;20470;-60
2023/04/24 07:00:20;;;;;;;10.87;6.73;;;16.50;75.40;;;17.00;45.79;94659.56;5079189;28;20585;-60
2023/04/24 07:02:47;;;;;;;21.70;5.37;;;16.60;73.10;;;17.20;46.89;94654.50;5077194;28;20903;-64
2023/04/24 07:05:15;;;;;;;21.40;6.47;;;16.80;73.90;;;17.42;46.48;94653.72;5080221;28;20446;-59
2023/04/24 07:07:44;;;;;;;11.37;6.63;;;17.00;73.50;;;17.59;45.22;94649.81;5077245;28;20955;-60
2023/04/24 07:10:12;;;;;;;7.53;6.60;;;17.20;72.00;;;17.69;45.16;94653.00;5077640;28;20450;-65
2023/04/24 07:12:40;;;;;;;10.23;6.37;;;17.30;71.50;;;17.76;45.63;94644.25;5076805;28;21078;-65
2023/04/24 07:15:10;;;;;;;18.63;7.70;;;17.50;71.50;;;17.94;45.83;94646.50;5076402;28;20473;-59
2023/04/24 07:17:38;;;;;;;25.37;8.57;;;17.60;71.70;;;18.09;45.57;94644.59;5075827;28;20558;-59
2023/04/24 07:20:09;;;;;;;20.63;9.80;;;17.70;71.20;;;18.22;44.66;94647.38;5076415;28;20494;-65
2023/04/24 07:22:36;;;;;;;18.83;12.00;;;17.90;70.90;;;18.40;44.49;94641.56;5076549;28;20469;-65
2023/04/24 07:25:06;;;;;;;11.33;7.50;;;18.00;70.10;;;18.66;44.47;94640.09;5076519;28;20453;-59
2023/04/24 07:27:34;;;;;;;17.63;6.70;;;18.20;69.90;;;18.97;44.10;94650.31;5072207;28;20471;-60
2023/04/24 07:30:02;;;;;;;12.77;7.97;;;18.50;69.40;;;19.29;43.69;94641.88;5078205;28;20489;-60
2023/04/24 07:32:29;;;;;;;18.83;8.30;;;18.80;68.70;;;19.60;43.01;94638.69;5070580;28;20480;-64
2023/04/24 07:34:57;;;;;;;17.27;7.40;;;19.10;67.60;;;19.93;42.60;94634.47;5074622;28;20520;-60
2023/04/24 07:37:24;;;;;;;10.10;7.67;;;19.50;66.10;;;20.21;42.69;94629.75;5077647;28;20478;-59
2023/04/24 07:39:52;;;;;;;10.93;5.73;;;19.70;66.30;;;20.50;42.41;94632.22;5078333;28;20999;-60
2023/04/24 07:42:20;;;;;;;11.17;6.30;;;20.00;66.20;;;20.78;40.92;94623.97;5075971;28;20866;-64
2023/04/24 07:44:48;;;;;;;9.07;5.30;;;20.30;63.10;;;21.01;41.28;94638.72;5079074;28;20445;-59
2023/04/24 07:47:16;;;;;;;26.63;7.50;;;20.50;63.60;;;21.24;40.34;94628.34;5076679;28;20502;-59
2023/04/24 07:49:43;;;;;;;14.20;7.50;;;20.80;61.80;;;21.44;39.56;94620.25;5072802;28;20512;-59
2023/04/24 07:52:11;;;;;;;11.20;6.33;;;21.00;60.50;;;21.66;40.54;94619.94;5076999;28;20882;-60
2023/04/24 07:54:38;;;;;;;8.90;6.20;;;21.20;61.50;;;21.91;39.82;94619.19;5076692;28;20450;-65
2023/04/24 07:57:06;;;;;;;15.17;6.33;;;21.40;61.40;;;22.15;40.05;94617.53;5076180;28;20474;-60
2023/04/24 07:59:36;;;;;;;11.17;6.10;;;21.70;60.90;;;22.44;39.29;94620.66;5077990;28;20542;-69
2023/04/24 08:02:03;;;;;;;10.13;6.80;;;21.90;60.00;;;22.63;39.43;94621.50;5078313;28;20489;-65
2023/04/24 08:04:30;;;;;;;10.97;6.93;;;22.10;59.60;;;22.70;38.59;94624.94;5076981;28;20450;-64
2023/04/24 08:06:57;;;;;;;18.20;6.00;;;22.30;57.90;;;22.90;38.49;94614.81;5079228;28;21017;-64
2023/04/24 08:09:25;;;;;;;10.37;6.63;;;22.50;58.70;;;23.15;37.85;94613.16;5075906;28;20989;-64
2023/04/24 08:11:53;;;;;;;6.73;5.40;;;22.70;57.10;;;23.31;38.10;94612.53;5078618;28;21020;-59
2023/04/24 08:14:20;;;;;;;18.20;6.97;;;22.90;56.90;;;23.37;36.73;94605.44;5076611;28;20971;-65
2023/04/24 08:16:49;;;;;;;8.30;6.17;;;23.10;56.00;;;23.44;37.56;94606.19;5078549;28;20477;-65
2023/04/24 08:19:17;;;;;;;8.67;6.53;;;23.10;56.70;;;23.63;37.72;94606.97;5076878;28;21082;-60
2023/04/24 08:21:45;;;;;;;8.87;5.20;;;23.30;56.60;;;23.79;37.32;94608.16;5081628;28;20497;-65
2023/04/24 08:24:12;;;;;;;16.27;7.00;;;23.40;56.50;;;23.99;36.89;94597.97;5074885;28;20458;-60
2023/04/24 08:26:39;;;;;;;606.17;91.17;;;23.60;55.00;;;24.09;36.50;94593.91;5074326;28;20875;-65
2023/04/24 08:29:07;;;;;;;11.80;7.50;;;23.70;55.40;;;24.21;36.66;94596.63;5072995;28;20446;-65
2023/04/24 08:31:35;;;;;;;15.77;5.80;;;23.80;55.50;;;24.37;36.50;94595.09;5078738;28;20450;-60
2023/04/24 08:34:04;;;;;;;15.77;6.30;;;23.90;55.10;;;24.57;36.76;94584.88;5074669;28;20485;-64
2023/04/24 08:36:31;;;;;;;14.67;5.80;;;24.10;55.40;;;24.54;35.88;94579.94;5077264;28;20541;-60
2023/04/24 08:38:59;;;;;;;16.33;5.67;;;24.20;53.80;;;24.48;36.39;94572.81;5073684;28;20533;-65
2023/04/24 08:41:27;;;;;;;10.20;6.90;;;24.10;53.90;;;24.52;35.79;94568.56;5078653;28;20639;-65
2023/04/24 08:43:54;;;;;;;8.67;5.37;;;24.10;53.90;;;24.64;36.26;94566.72;5074522;28;20450;-63
2023/04/24 08:46:22;;;;;;;6.93;5.23;;;24.20;54.00;;;24.83;35.57;94570.13;5079462;28;21073;-59
2023/04/24 08:48:50;;;;;;;8.03;5.60;;;24.40;54.20;;;24.92;35.97;94569.75;5073862;28;20454;-64
2023/04/24 08:51:18;;;;;;;7.43;4.93;;;24.50;53.80;;;24.84;34.90;94563.66;5075617;28;20449;-64
2023/04/24 08:53:46;;;;;;;19.70;6.70;;;24.50;52.10;;;24.90;35.48;94559.22;5076420;28;20442;-64
2023/04/24 08:56:13;;;;;;;11.73;5.93;;;24.40;52.70;;;25.09;35.35;94553.69;5074156;28;20442;-65
2023/04/24 08:58:41;;;;;;;9.90;5.80;;;24.60;52.90;;;25.15;35.12;94555.41;5077002;28;20473;-61
2023/04/24 09:01:08;;;;;;;19.70;7.10;;;24.70;52.30;;;25.08;34.67;94549.34;5077025;28;20478;-61
2023/04/24 09:03:36;;;;;;;15.77;6.17;;;24.60;52.10;;;25.02;34.71;94548.44;5073317;28;20520;-58
2023/04/24 09:06:04;;;;;;;24.80;6.10;;;24.60;51.70;;;24.99;34.95;94543.53;5077339;28;20447;-65
2023/04/24 09:08:33;;;;;;;7.20;6.50;;;24.60;52.90;;;24.82;34.39;94533.50;5075907;28;20478;-60
2023/04/24 09:11:02;;;;;;;20.87;6.70;;;24.50;52.10;;;24.63;35.02;94527.47;5076856;28;20466;-59
2023/04/24 09:13:29;;;;;;;38.43;6.30;;;24.30;51.50;;;24.59;34.59;94528.16;5075627;28;20474;-65
2023/04/24 09:16:00;;;;;;;21.37;6.30;;;24.20;51.80;;;24.58;34.81;94524.66;5076179;28;20474;-64
2023/04/24 09:18:27;;;;;;;7.40;5.90;;;24.10;51.80;;;24.50;35.13;94522.28;5080191;28;20458;-65
2023/04/24 09:21:05;;;;;;;6.33;5.30;;;24.10;51.80;;;24.41;34.49;94521.00;5073613;28;20497;-64
2023/04/24 09:23:34;;;;;;;7.77;5.30;;;24.00;50.90;;;24.38;34.74;94510.72;5079829;28;20959;-65
2023/04/24 09:26:02;;;;;;;10.67;5.37;;;24.00;50.90;;;24.38;35.85;94513.41;5071646;28;20455;-64
2023/04/24 09:28:33;;;;;;;10.43;5.90;;;24.00;52.40;;;24.51;35.58;94510.50;5073265;28;20493;-60
2023/04/24 09:31:08;;;;;;;13.40;5.90;;;24.00;52.00;;;24.63;34.58;94507.81;5073995;28;20545;-60
2023/04/24 09:33:36;;;;;;;10.17;5.60;;;24.10;52.00;;;24.74;35.08;94511.53;5075569;28;20478;-65
2023/04/24 09:36:04;;;;;;;8.60;6.07;;;24.20;51.70;;;24.74;34.91;94506.16;5074460;28;21021;-60
2023/04/24 09:38:37;;;;;;;16.33;5.50;;;24.30;51.30;;;24.66;34.94;94502.78;5076689;28;20473;-65
2023/04/24 09:41:07;;;;;;;11.43;4.73;;;24.20;51.00;;;24.65;35.19;94501.16;5076825;28;20484;-59
2023/04/24 09:43:34;;;;;;;11.23;5.40;;;24.20;51.20;;;24.75;34.72;94513.16;5074962;28;20540;-60
2023/04/24 09:46:07;;;;;;;9.87;5.60;;;24.30;51.30;;;24.84;35.04;94507.19;5075749;28;20454;-64
2023/04/24 09:48:35;;;;;;;8.13;4.70;;;24.40;51.40;;;24.80;34.29;94499.81;5070486;28;20473;-64
2023/04/24 09:51:06;;;;;;;7.77;6.27;;;24.40;50.90;;;24.68;34.17;94499.88;5076545;28;20927;-60
2023/04/24 09:53:35;;;;;;;8.93;5.70;;;24.30;50.60;;;24.58;34.10;94495.06;5072614;28;20499;-64
2023/04/24 09:56:09;;;;;;;12.00;6.43;;;24.20;50.50;;;24.47;34.31;94495.88;5073077;28;20442;-59
2023/04/24 09:58:36;;;;;;;6.80;5.10;;;24.10;50.90;;;24.55;34.91;94492.81;5075224;28;20538;-65
2023/04/24 10:01:04;;;;;;;10.83;5.87;;;24.10;51.20;;;24.70;33.59;94489.69;5077091;28;20555;-59
2023/04/24 10:03:32;;;;;;;12.83;5.20;;;24.20;50.20;;;24.75;34.24;94483.59;5076912;28;20856;-58
2023/04/24 10:06:00;;;;;;;5.33;4.83;;;24.30;51.00;;;24.85;34.02;94470.34;5081148;28;20451;-62
2023/04/24 10:08:27;;;;;;;6.10;5.30;;;24.30;49.90;;;25.01;33.83;94466.88;5078606;28;20569;-65
2023/04/24 10:10:56;;;;;;;7.80;5.30;;;24.50;50.50;;;25.14;33.60;94462.28;5080589;28;20512;-64
2023/04/24 10:13:24;;;;;;;9.20;4.00;;;24.60;49.30;;;25.14;33.04;94459.56;5077951;28;20912;-59
2023/04/24 10:15:51;;;;;;;6.80;5.63;;;24.60;49.20;;;25.07;33.43;94470.50;5078424;28;20482;-57
2023/04/24 10:18:19;;;;;;;18.73;5.53;;;24.70;49.50;;;24.99;33.86;94452.84;5078075;28;20466;-58